Terminal Aerodrome Forecast
Issued by NWS Bismarck, ND

Home | Current Version | Previous Version | Graphics & Text | Print | Product List | Glossary On
Versions: 1 2 3 4 5 6 7 8 9 10 11 12 13 14 15 16 17 18 19 20 21 22 23 24 25 26 27 28
892
FTUS43 KBIS 231904 AAA
TAFISN
TAF AMD
KISN 231904Z 2319/2418 10008KT 5SM BR VCSH OVC008
     FM240300 09005KT P6SM OVC005
     FM240500 08006KT 3SM -SHRA VCTS OVC005CB
     FM241200 03006KT P6SM OVC004
     FM241600 31009KT P6SM BKN008=

USA.gov is the U.S. government's official web portal to all federal, state and local government web resources and services.